Time;durP1;ratioP1;P1;durP2;ratioP2;P2;SDS_P1;SDS_P2;PMS_P1;PMS_P2;Temp;Humidity;BMP_temperature;BMP_pressure;BME280_temperature;BME280_humidity;BME280_pressure;Samples;Min_cycle;Max_cycle;Signal;HPM_P1;HPM_P2
2022/06/26 00:01:37;;;;;;;1999.90;999.90;;;18.80;99.90;;;;;;5113288;28;20047;-61
2022/06/26 00:04:09;;;;;;;1999.90;999.90;;;18.80;99.90;;;;;;5113078;28;20048;-61
2022/06/26 00:06:35;;;;;;;1999.90;999.90;;;18.80;99.90;;;;;;5112428;28;20084;-61
2022/06/26 00:09:01;;;;;;;1999.90;999.90;;;18.80;99.90;;;;;;5112672;28;20051;-61
2022/06/26 00:11:27;;;;;;;1999.90;999.90;;;18.80;99.90;;;;;;5112972;28;20040;-61
2022/06/26 00:13:52;;;;;;;1999.90;999.90;;;18.80;99.90;;;;;;5112419;28;20482;-61
2022/06/26 00:16:19;;;;;;;1999.90;999.90;;;18.80;99.90;;;;;;5112646;28;20451;-61
2022/06/26 00:18:45;;;;;;;1999.90;999.90;;;18.80;99.90;;;;;;5112876;28;20052;-61
2022/06/26 00:21:11;;;;;;;1999.90;999.90;;;18.80;99.90;;;;;;5112477;28;20367;-60
2022/06/26 00:23:37;;;;;;;1999.90;999.90;;;18.80;99.90;;;;;;5113008;28;20096;-61
2022/06/26 00:26:03;;;;;;;1999.90;999.90;;;18.80;99.90;;;;;;5112134;28;20086;-61
2022/06/26 00:28:29;;;;;;;1999.90;999.90;;;18.70;99.90;;;;;;5112447;28;20420;-61
2022/06/26 00:30:55;;;;;;;1999.90;999.90;;;18.70;99.90;;;;;;5113065;28;20055;-61
2022/06/26 00:33:21;;;;;;;1999.90;999.90;;;18.70;99.90;;;;;;5112607;28;20040;-61
2022/06/26 00:35:47;;;;;;;1999.90;999.90;;;18.70;99.90;;;;;;5093584;28;20051;-61
2022/06/26 00:38:13;;;;;;;1999.90;999.90;;;18.60;99.90;;;;;;5113076;28;20123;-61
2022/06/26 00:40:40;;;;;;;1999.90;999.90;;;18.60;99.90;;;;;;5112590;28;20448;-61
2022/06/26 00:43:07;;;;;;;1999.90;999.90;;;18.60;99.90;;;;;;5111619;28;20087;-61
2022/06/26 00:45:33;;;;;;;1999.90;999.90;;;18.50;99.90;;;;;;5112711;28;20500;-61
2022/06/26 00:47:58;;;;;;;1554.20;798.22;;;18.50;99.90;;;;;;5093529;28;20039;-60
2022/06/26 00:50:25;;;;;;;1999.90;999.90;;;18.50;99.90;;;;;;5112814;28;20059;-61
2022/06/26 00:52:53;;;;;;;751.50;678.97;;;18.50;99.90;;;;;;5112493;28;20075;-60
2022/06/26 00:55:20;;;;;;;797.47;735.72;;;18.50;99.90;;;;;;5076315;28;20083;-61
2022/06/26 00:57:46;;;;;;;774.58;718.58;;;18.40;99.90;;;;;;5114916;28;20044;-61
2022/06/26 01:00:13;;;;;;;690.97;642.30;;;18.40;99.90;;;;;;5116607;28;20062;-61
2022/06/26 01:02:40;;;;;;;744.85;691.47;;;18.50;99.90;;;;;;5115319;28;20075;-61
2022/06/26 01:05:07;;;;;;;751.88;699.05;;;18.50;99.90;;;;;;5116603;28;20035;-61
2022/06/26 01:07:33;;;;;;;827.83;769.33;;;18.50;99.90;;;;;;5080953;28;20455;-61
2022/06/26 01:10:00;;;;;;;784.45;729.10;;;18.50;99.90;;;;;;5114940;28;20047;-61
2022/06/26 01:12:26;;;;;;;830.65;770.65;;;18.50;99.90;;;;;;5097772;28;20393;-60
2022/06/26 01:14:53;;;;;;;840.45;776.08;;;18.50;99.90;;;;;;5098150;28;20131;-61
2022/06/26 01:17:19;;;;;;;842.95;780.67;;;18.50;99.90;;;;;;5097105;28;20127;-60
2022/06/26 01:19:46;;;;;;;828.58;768.15;;;18.50;99.90;;;;;;5097602;28;20044;-61
2022/06/26 01:22:12;;;;;;;847.08;777.08;;;18.50;99.90;;;;;;5094274;28;20036;-61
2022/06/26 01:24:37;;;;;;;796.35;740.22;;;18.40;99.90;;;;;;5109432;28;20066;-61
2022/06/26 01:27:05;;;;;;;935.22;862.55;;;18.40;99.90;;;;;;5097589;28;20040;-60
2022/06/26 01:29:31;;;;;;;1009.25;910.88;;;18.40;99.90;;;;;;5097886;28;20051;-60
2022/06/26 01:31:58;;;;;;;791.58;736.50;;;18.40;99.90;;;;;;5096533;28;20039;-61
2022/06/26 01:34:24;;;;;;;739.45;688.35;;;18.40;99.90;;;;;;5097620;28;20409;-61
2022/06/26 01:36:55;;;;;;;751.75;700.88;;;18.30;99.90;;;;;;5097473;28;20062;-60
2022/06/26 01:39:20;;;;;;;568.97;534.45;;;18.20;99.90;;;;;;5096652;28;20039;-61
2022/06/26 01:41:49;;;;;;;802.47;746.10;;;18.20;99.90;;;;;;5115708;28;20537;-61
2022/06/26 01:44:15;;;;;;;827.53;758.70;;;18.20;99.90;;;;;;5096766;28;20044;-61
2022/06/26 01:46:41;;;;;;;1619.70;860.58;;;18.20;99.90;;;;;;5114983;28;20104;-61
2022/06/26 01:49:08;;;;;;;670.05;611.88;;;18.10;99.90;;;;;;5097313;28;20058;-61
2022/06/26 01:51:36;;;;;;;1347.82;816.63;;;18.10;99.90;;;;;;5114930;28;20112;-61
2022/06/26 01:54:02;;;;;;;1347.78;821.67;;;18.10;99.90;;;;;;5096549;28;20494;-61
2022/06/26 01:56:29;;;;;;;444.17;419.67;;;18.10;99.90;;;;;;5080437;28;20071;-61
2022/06/26 01:58:55;;;;;;;570.63;536.30;;;18.10;99.90;;;;;;5114909;28;20524;-60
2022/06/26 02:01:34;;;;;;;586.55;547.70;;;18.10;99.90;;;;;;5096825;28;20131;-60
2022/06/26 02:04:00;;;;;;;531.92;494.95;;;18.10;99.90;;;;;;5113904;28;20043;-61
2022/06/26 02:06:29;;;;;;;604.55;566.72;;;18.10;99.90;;;;;;5114456;28;20433;-60
2022/06/26 02:08:55;;;;;;;503.73;474.42;;;18.00;99.90;;;;;;5096151;28;20044;-60
2022/06/26 02:14:09;;;;;;;505.20;472.70;;;18.00;99.90;;;;;;5095885;28;20393;-60
2022/06/26 02:16:42;;;;;;;524.05;491.15;;;18.10;99.90;;;;;;5096789;28;20521;-61
2022/06/26 02:19:10;;;;;;;336.33;317.48;;;18.10;99.90;;;;;;5096981;28;20047;-60
2022/06/26 02:21:38;;;;;;;437.05;412.48;;;18.10;99.90;;;;;;5078568;28;20047;-60
2022/06/26 02:24:05;;;;;;;364.17;343.15;;;18.10;99.90;;;;;;5096469;28;20054;-61
2022/06/26 02:26:30;;;;;;;441.92;415.25;;;18.10;99.90;;;;;;5078851;28;20043;-61
2022/06/26 02:28:57;;;;;;;464.08;436.98;;;18.20;99.90;;;;;;5096226;28;20126;-61
2022/06/26 02:31:23;;;;;;;379.40;358.50;;;18.20;99.90;;;;;;5114520;28;20466;-60
2022/06/26 02:33:49;;;;;;;403.70;381.75;;;18.20;99.90;;;;;;5095867;28;20131;-61
2022/06/26 02:36:15;;;;;;;388.33;366.52;;;18.10;99.90;;;;;;5113733;28;20075;-60
2022/06/26 02:38:42;;;;;;;399.90;377.73;;;18.10;99.90;;;;;;5095760;28;20055;-61
2022/06/26 02:41:08;;;;;;;434.95;410.15;;;18.00;99.90;;;;;;5095304;28;20088;-61
2022/06/26 02:43:35;;;;;;;455.20;428.17;;;18.00;99.90;;;;;;5079358;28;20047;-61
2022/06/26 02:46:04;;;;;;;384.33;362.80;;;18.00;99.90;;;;;;5095943;28;20043;-61
2022/06/26 02:48:29;;;;;;;641.08;593.80;;;18.00;99.90;;;;;;5095354;28;20508;-60
2022/06/26 02:50:55;;;;;;;637.45;589.97;;;17.90;99.90;;;;;;5096153;28;20123;-60
2022/06/26 02:53:21;;;;;;;725.15;667.13;;;17.90;99.90;;;;;;5095964;28;20485;-60
2022/06/26 02:55:49;;;;;;;644.97;598.60;;;17.90;99.90;;;;;;5094764;28;20097;-60
2022/06/26 02:58:15;;;;;;;536.30;499.30;;;17.90;99.90;;;;;;5096131;28;20132;-60
2022/06/26 03:00:54;;;;;;;594.65;554.17;;;17.80;99.90;;;;;;5078958;28;20062;-61
2022/06/26 03:03:21;;;;;;;605.42;563.60;;;17.80;99.90;;;;;;5062005;28;20126;-61
2022/06/26 03:05:46;;;;;;;692.25;640.80;;;17.80;99.90;;;;;;5095535;28;20525;-60
2022/06/26 03:08:12;;;;;;;631.72;587.70;;;17.80;99.90;;;;;;5095384;28;20177;-60
2022/06/26 03:10:38;;;;;;;620.42;578.60;;;17.80;99.90;;;;;;5113294;28;20062;-60
2022/06/26 03:13:04;;;;;;;648.72;602.97;;;17.90;99.90;;;;;;5113739;28;20047;-60
2022/06/26 03:15:33;;;;;;;761.22;700.92;;;17.90;99.90;;;;;;5094810;28;20051;-61
2022/06/26 03:18:02;;;;;;;740.17;678.85;;;18.00;99.90;;;;;;5095775;28;20059;-60
2022/06/26 03:20:29;;;;;;;685.70;633.35;;;18.00;99.90;;;;;;5095114;28;20040;-61
2022/06/26 03:22:54;;;;;;;669.38;618.33;;;18.00;99.90;;;;;;5112000;28;20066;-60
2022/06/26 03:25:21;;;;;;;660.03;608.80;;;18.00;99.90;;;;;;5078736;28;20499;-61
2022/06/26 03:27:47;;;;;;;702.50;648.85;;;18.00;99.90;;;;;;5113954;28;20048;-61
2022/06/26 03:30:14;;;;;;;684.13;634.45;;;18.00;99.90;;;;;;5094400;28;20066;-61
2022/06/26 03:32:46;;;;;;;524.15;488.83;;;18.00;99.90;;;;;;5095069;28;20043;-60
2022/06/26 03:35:12;;;;;;;530.95;496.50;;;18.00;99.90;;;;;;5113671;28;20042;-60
2022/06/26 03:37:38;;;;;;;415.35;391.02;;;18.10;99.90;;;;;;5094171;28;20044;-60
2022/06/26 03:40:07;;;;;;;554.65;517.83;;;18.00;99.90;;;;;;5078074;28;20478;-60
2022/06/26 03:42:32;;;;;;;404.58;380.27;;;17.90;99.90;;;;;;5113464;28;20059;-60
2022/06/26 03:44:59;;;;;;;542.28;507.75;;;17.90;99.90;;;;;;5094348;28;20180;-60
2022/06/26 03:47:25;;;;;;;547.42;512.35;;;17.90;99.90;;;;;;5113702;28;20397;-60
2022/06/26 03:49:54;;;;;;;542.60;510.48;;;17.90;99.90;;;;;;5094600;28;20088;-60
2022/06/26 03:52:22;;;;;;;358.67;339.30;;;17.90;99.90;;;;;;5077180;28;20051;-60
2022/06/26 03:54:48;;;;;;;595.70;553.50;;;17.90;99.90;;;;;;5078855;28;20051;-60
2022/06/26 03:57:18;;;;;;;429.05;403.95;;;17.80;99.90;;;;;;5094727;28;20051;-61
2022/06/26 03:59:44;;;;;;;637.90;594.28;;;17.80;99.90;;;;;;5056961;28;20048;-60
2022/06/26 04:02:13;;;;;;;642.22;598.75;;;17.80;99.90;;;;;;5074869;28;20452;-60
2022/06/26 04:04:40;;;;;;;612.05;570.83;;;17.70;99.90;;;;;;5074648;28;20043;-60
2022/06/26 04:07:07;;;;;;;673.13;626.83;;;17.80;99.90;;;;;;5082375;28;20551;-60
2022/06/26 04:09:36;;;;;;;618.83;577.75;;;17.80;99.90;;;;;;5077878;28;20053;-60
2022/06/26 04:12:03;;;;;;;597.97;558.88;;;17.80;99.90;;;;;;5094154;28;20043;-60
2022/06/26 04:14:33;;;;;;;529.58;495.77;;;17.80;99.90;;;;;;5094491;28;20144;-60
2022/06/26 04:16:59;;;;;;;624.85;582.85;;;17.80;99.90;;;;;;5112576;28;20490;-60
2022/06/26 04:19:27;;;;;;;587.92;549.03;;;17.80;99.90;;;;;;5112516;28;20039;-60
2022/06/26 04:21:56;;;;;;;615.20;570.25;;;17.80;99.90;;;;;;5094334;28;20073;-60
2022/06/26 04:24:22;;;;;;;644.20;598.97;;;17.80;99.90;;;;;;5094580;28;20047;-60
2022/06/26 04:26:48;;;;;;;569.25;532.13;;;17.80;99.90;;;;;;5093949;28;20115;-60
2022/06/26 04:29:14;;;;;;;644.53;599.28;;;17.80;99.90;;;;;;5094424;28;20792;-60
2022/06/26 04:31:40;;;;;;;579.60;541.15;;;17.80;99.90;;;;;;5094989;28;20101;-60
2022/06/26 04:34:07;;;;;;;491.05;459.10;;;17.90;99.90;;;;;;5080940;28;20043;-60
2022/06/26 04:36:35;;;;;;;554.58;518.63;;;17.90;99.90;;;;;;5098535;28;20067;-60
2022/06/26 04:39:01;;;;;;;582.58;545.33;;;17.90;99.90;;;;;;5081813;28;20090;-61
2022/06/26 04:41:34;;;;;;;610.42;569.80;;;18.00;99.90;;;;;;5098062;28;20059;-61
2022/06/26 04:44:04;;;;;;;594.38;556.45;;;18.10;99.90;;;;;;5078247;28;20501;-60
2022/06/26 04:46:32;;;;;;;708.78;660.63;;;18.10;99.90;;;;;;5095425;28;20051;-60
2022/06/26 04:48:59;;;;;;;666.13;620.78;;;18.10;99.90;;;;;;5094482;28;20402;-60
2022/06/26 04:51:25;;;;;;;734.00;681.40;;;18.10;99.90;;;;;;5103552;28;20040;-60
2022/06/26 04:53:52;;;;;;;727.53;677.25;;;18.10;99.90;;;;;;5098734;28;20040;-60
2022/06/26 04:56:18;;;;;;;704.47;653.70;;;18.00;99.90;;;;;;5112781;28;20043;-61
2022/06/26 04:58:47;;;;;;;703.47;653.30;;;18.00;99.90;;;;;;5094963;28;20047;-60
2022/06/26 05:01:14;;;;;;;691.90;644.03;;;17.90;99.90;;;;;;5079352;28;20054;-60
2022/06/26 05:04:00;;;;;;;638.00;591.50;;;17.90;99.90;;;;;;5116307;28;20079;-60
2022/06/26 05:06:37;;;;;;;648.50;604.25;;;17.80;99.90;;;;;;5097968;28;20122;-60
2022/06/26 05:09:13;;;;;;;782.60;723.60;;;17.70;99.90;;;;;;5096618;28;20482;-60
2022/06/26 05:11:41;;;;;;;782.63;724.97;;;17.70;99.90;;;;;;5098258;28;20066;-60
2022/06/26 05:14:08;;;;;;;788.65;729.42;;;17.70;99.90;;;;;;5097708;28;20049;-60
2022/06/26 05:16:37;;;;;;;746.95;692.45;;;17.70;99.90;;;;;;5080335;28;20044;-60
2022/06/26 05:19:04;;;;;;;730.13;676.60;;;17.70;99.90;;;;;;5097606;28;20043;-60
2022/06/26 05:21:33;;;;;;;714.63;665.05;;;17.70;99.90;;;;;;5097604;28;20124;-61
2022/06/26 05:23:59;;;;;;;776.17;719.47;;;17.60;99.90;;;;;;5115371;28;20459;-60
2022/06/26 05:26:26;;;;;;;714.80;661.80;;;17.60;99.90;;;;;;5080709;28;20045;-60
2022/06/26 05:28:53;;;;;;;778.28;720.00;;;17.60;99.90;;;;;;5097681;28;20436;-60
2022/06/26 05:31:19;;;;;;;742.35;688.03;;;17.60;99.90;;;;;;5096943;28;20046;-60
2022/06/26 05:33:46;;;;;;;699.13;648.55;;;17.60;99.90;;;;;;5097656;28;20399;-60
2022/06/26 05:36:12;;;;;;;738.10;679.47;;;17.60;99.90;;;;;;5114289;28;20051;-60
2022/06/26 05:38:38;;;;;;;587.95;549.00;;;17.60;99.90;;;;;;5080638;28;20096;-60
2022/06/26 05:41:05;;;;;;;618.92;577.17;;;17.60;99.90;;;;;;5097704;28;20037;-60
2022/06/26 05:43:34;;;;;;;575.15;537.40;;;17.70;99.90;;;;;;5078787;28;20040;-60
2022/06/26 05:46:01;;;;;;;662.40;618.30;;;17.70;99.90;;;;;;5097686;28;20150;-60
2022/06/26 05:48:47;;;;;;;604.85;566.67;;;17.70;99.90;;;;;;5115442;28;20474;-60
2022/06/26 05:51:33;;;;;;;612.05;570.42;;;17.70;99.90;;;;;;5114295;28;20105;-60
2022/06/26 05:54:11;;;;;;;621.33;576.75;;;17.80;99.90;;;;;;5096965;28;20039;-60
2022/06/26 05:56:50;;;;;;;609.05;568.03;;;17.80;99.90;;;;;;5077229;28;20469;-60
2022/06/26 05:59:24;;;;;;;639.92;595.10;;;17.80;99.90;;;;;;5076100;28;20040;-60
2022/06/26 06:02:09;;;;;;;635.78;590.80;;;17.80;99.90;;;;;;5085394;28;20035;-60
2022/06/26 06:04:35;;;;;;;584.38;545.90;;;17.90;99.90;;;;;;5096555;28;20048;-60
2022/06/26 06:07:04;;;;;;;556.08;519.67;;;17.90;99.90;;;;;;5079811;28;20059;-60
2022/06/26 06:09:30;;;;;;;663.47;616.60;;;18.00;99.90;;;;;;5096772;28;20410;-60
2022/06/26 06:11:56;;;;;;;646.00;597.05;;;18.00;99.90;;;;;;5112527;28;20043;-60
2022/06/26 06:14:23;;;;;;;564.60;525.92;;;17.90;99.90;;;;;;5096862;28;20566;-60
2022/06/26 06:16:50;;;;;;;558.90;523.40;;;17.90;99.90;;;;;;5079754;28;20439;-60
2022/06/26 06:19:16;;;;;;;614.05;570.22;;;18.00;99.90;;;;;;5095999;28;20044;-60
2022/06/26 06:21:44;;;;;;;644.42;597.78;;;18.00;99.90;;;;;;5096714;28;20043;-60
2022/06/26 06:24:10;;;;;;;622.95;577.50;;;18.00;99.90;;;;;;5111065;28;20051;-60
2022/06/26 06:26:37;;;;;;;734.25;678.55;;;17.90;99.90;;;;;;5096097;28;20043;-60
2022/06/26 06:29:12;;;;;;;599.35;554.95;;;17.90;99.90;;;;;;5095882;28;20374;-60
2022/06/26 06:31:38;;;;;;;632.20;584.65;;;18.00;99.90;;;;;;5096746;28;20060;-60
2022/06/26 06:34:06;;;;;;;702.55;649.22;;;18.00;99.90;;;;;;5096024;28;20074;-60
2022/06/26 06:36:32;;;;;;;649.80;599.25;;;18.00;99.90;;;;;;5114081;28;20036;-60
2022/06/26 06:39:01;;;;;;;568.78;529.15;;;18.10;99.90;;;;;;5076000;28;20044;-60
2022/06/26 06:41:27;;;;;;;571.65;533.55;;;18.10;99.90;;;;;;5075069;28;20394;-61
2022/06/26 06:44:04;;;;;;;612.83;570.13;;;18.20;99.90;;;;;;5075795;28;20056;-60
2022/06/26 06:46:29;;;;;;;566.38;529.80;;;18.30;99.90;;;;;;5111359;28;20036;-60
2022/06/26 06:49:08;;;;;;;538.97;502.13;;;18.40;99.90;;;;;;5095778;28;20131;-60
2022/06/26 06:51:46;;;;;;;611.35;571.17;;;18.60;99.90;;;;;;5095390;28;20174;-60
2022/06/26 06:54:12;;;;;;;753.10;693.65;;;18.60;99.90;;;;;;5094603;28;20134;-60
2022/06/26 06:56:38;;;;;;;587.75;548.30;;;18.80;99.90;;;;;;5112386;28;20047;-60
2022/06/26 06:59:04;;;;;;;676.15;627.80;;;18.90;99.90;;;;;;5094998;28;20043;-60
2022/06/26 07:01:30;;;;;;;685.80;639.17;;;19.10;99.90;;;;;;5112771;28;20090;-60
2022/06/26 07:03:57;;;;;;;598.78;559.55;;;19.10;99.90;;;;;;5113667;28;20051;-60
2022/06/26 07:06:23;;;;;;;539.72;506.77;;;19.20;99.90;;;;;;5095239;28;20039;-60
2022/06/26 07:08:49;;;;;;;593.53;554.58;;;19.20;99.90;;;;;;5112848;28;20047;-60
2022/06/26 07:11:15;;;;;;;568.95;532.05;;;19.00;99.90;;;;;;5095067;28;20069;-60
2022/06/26 07:13:41;;;;;;;575.10;536.25;;;19.00;99.90;;;;;;5089146;28;20521;-60
2022/06/26 07:16:07;;;;;;;651.35;607.25;;;19.00;99.90;;;;;;5088786;28;20111;-60
2022/06/26 07:18:33;;;;;;;577.97;539.47;;;19.00;99.90;;;;;;5113086;28;20255;-60
2022/06/26 07:20:59;;;;;;;567.30;530.17;;;19.00;99.90;;;;;;5112406;28;20051;-60
2022/06/26 07:23:24;;;;;;;655.00;608.83;;;19.00;99.90;;;;;;5110213;28;20044;-60
2022/06/26 07:25:58;;;;;;;616.78;572.22;;;19.00;99.90;;;;;;5075184;28;20036;-60
2022/06/26 07:28:32;;;;;;;600.13;558.47;;;19.10;99.90;;;;;;5074756;28;20079;-60
2022/06/26 07:30:58;;;;;;;628.38;583.63;;;19.00;99.90;;;;;;5065133;28;20521;-60
2022/06/26 07:36:08;;;;;;;662.80;617.45;;;18.90;99.90;;;;;;5093687;28;20039;-60
2022/06/26 07:38:35;;;;;;;617.83;576.33;;;18.90;99.90;;;;;;5092464;28;20044;-60
2022/06/26 07:41:01;;;;;;;446.17;419.52;;;18.90;99.90;;;;;;5093605;28;20162;-60
2022/06/26 07:43:27;;;;;;;643.78;599.83;;;19.00;99.90;;;;;;5093862;28;20091;-61
2022/06/26 07:45:54;;;;;;;656.95;609.20;;;19.00;99.90;;;;;;5095352;28;20054;-60
2022/06/26 07:48:20;;;;;;;687.85;638.35;;;19.10;99.90;;;;;;5088482;28;20082;-60
2022/06/26 07:50:51;;;;;;;663.28;611.72;;;19.30;99.90;;;;;;5088152;28;20048;-60
2022/06/26 07:53:18;;;;;;;685.92;630.40;;;19.70;99.90;;;;;;5113055;28;20078;-60
2022/06/26 07:55:43;;;;;;;742.35;680.08;;;19.80;99.90;;;;;;5113190;28;20452;-60
2022/06/26 07:58:09;;;;;;;747.25;688.53;;;19.90;99.90;;;;;;5111893;28;20096;-61
2022/06/26 08:00:35;;;;;;;570.45;532.38;;;19.70;99.90;;;;;;5113227;28;20036;-60
2022/06/26 08:03:06;;;;;;;509.38;475.13;;;19.50;99.90;;;;;;5112878;28;20470;-60
2022/06/26 08:05:31;;;;;;;538.03;501.50;;;19.30;99.90;;;;;;5111384;28;20047;-60
2022/06/26 08:07:57;;;;;;;673.95;621.83;;;19.10;99.90;;;;;;5094600;28;20040;-60
2022/06/26 08:10:23;;;;;;;669.42;621.53;;;19.10;99.90;;;;;;5094754;28;20414;-60
2022/06/26 08:12:49;;;;;;;652.05;603.25;;;19.10;99.90;;;;;;5112147;28;20051;-61
2022/06/26 08:15:15;;;;;;;650.47;605.83;;;19.10;99.90;;;;;;5094467;28;20485;-60
2022/06/26 08:17:41;;;;;;;707.25;647.30;;;19.30;99.90;;;;;;5113154;28;20067;-60
2022/06/26 08:20:07;;;;;;;595.88;554.88;;;19.70;99.90;;;;;;5112069;28;20473;-60
2022/06/26 08:22:34;;;;;;;592.13;552.83;;;19.90;99.90;;;;;;5113142;28;20101;-60
2022/06/26 08:24:59;;;;;;;498.08;465.58;;;20.30;99.90;;;;;;5111762;28;20067;-60
2022/06/26 08:27:25;;;;;;;530.42;497.33;;;20.40;99.90;;;;;;5079023;28;20485;-60
2022/06/26 08:29:51;;;;;;;486.88;457.35;;;20.40;99.90;;;;;;5101350;28;20079;-61
2022/06/26 08:32:17;;;;;;;593.80;553.33;;;20.20;99.90;;;;;;5111607;28;20365;-60
2022/06/26 08:34:43;;;;;;;532.13;498.85;;;20.20;99.90;;;;;;5111972;28;20051;-60
2022/06/26 08:37:09;;;;;;;605.28;559.80;;;20.30;99.90;;;;;;5112733;28;20054;-60
2022/06/26 08:39:35;;;;;;;631.65;586.42;;;20.50;99.90;;;;;;5111807;28;20039;-60
2022/06/26 08:42:03;;;;;;;567.25;529.80;;;20.60;99.90;;;;;;5111778;28;20448;-60
2022/06/26 08:44:31;;;;;;;622.78;582.35;;;20.50;99.90;;;;;;5112001;28;20386;-60
2022/06/26 08:46:58;;;;;;;564.78;527.33;;;20.30;99.90;;;;;;5095499;28;20401;-60
2022/06/26 08:49:24;;;;;;;528.85;494.73;;;20.00;99.90;;;;;;5079083;28;20047;-60
2022/06/26 08:51:51;;;;;;;725.28;671.83;;;19.70;99.90;;;;;;5112582;28;20040;-60
2022/06/26 08:54:18;;;;;;;472.67;444.80;;;19.50;99.90;;;;;;5111497;28;20397;-60
2022/06/26 08:56:47;;;;;;;762.53;702.45;;;19.50;99.90;;;;;;5092112;28;20048;-60
2022/06/26 08:59:16;;;;;;;592.55;550.50;;;19.60;99.90;;;;;;5101624;28;20059;-61
2022/06/26 09:01:42;;;;;;;630.60;585.30;;;19.70;99.90;;;;;;5111102;28;20043;-60
2022/06/26 09:04:10;;;;;;;671.65;622.55;;;19.70;99.90;;;;;;5111963;28;20044;-60
2022/06/26 09:06:37;;;;;;;906.17;821.58;;;19.90;99.90;;;;;;5111594;28;20456;-60
2022/06/26 09:09:13;;;;;;;426.05;400.77;;;20.20;99.90;;;;;;5111069;28;20044;-60
2022/06/26 09:11:39;;;;;;;368.88;348.50;;;20.50;99.90;;;;;;5112065;28;20140;-60
2022/06/26 09:14:04;;;;;;;537.97;500.95;;;20.70;99.90;;;;;;5112162;28;20393;-60
2022/06/26 09:16:32;;;;;;;543.20;507.77;;;20.90;99.90;;;;;;5111111;28;20047;-60
2022/06/26 09:19:10;;;;;;;661.30;616.58;;;21.10;99.90;;;;;;5094704;28;20058;-60
2022/06/26 09:21:36;;;;;;;573.28;528.00;;;21.20;99.90;;;;;;5115531;28;20040;-60
2022/06/26 09:24:02;;;;;;;385.95;352.27;;;21.30;99.90;;;;;;5094953;28;20055;-60
2022/06/26 09:26:28;;;;;;;724.67;670.33;;;21.50;99.90;;;;;;5115020;28;20039;-60
2022/06/26 09:28:54;;;;;;;388.25;358.58;;;21.40;99.90;;;;;;5114153;28;20043;-60
2022/06/26 09:31:22;;;;;;;573.25;536.28;;;21.40;99.90;;;;;;5115237;28;20043;-60
2022/06/26 09:33:48;;;;;;;445.00;418.17;;;21.50;99.90;;;;;;5114635;28;20398;-61
2022/06/26 09:36:17;;;;;;;595.78;554.08;;;21.80;99.90;;;;;;5114536;28;20058;-61
2022/06/26 09:38:50;;;;;;;525.15;492.25;;;21.90;99.90;;;;;;5114521;28;20047;-60
2022/06/26 09:41:27;;;;;;;686.05;629.80;;;21.60;99.90;;;;;;5105273;28;20036;-61
2022/06/26 09:43:55;;;;;;;671.50;621.88;;;21.40;99.90;;;;;;5114243;28;20044;-60
2022/06/26 09:46:29;;;;;;;1999.90;999.90;;;21.10;99.90;;;;;;5114612;28;20031;-60
2022/06/26 09:48:57;;;;;;;1999.90;999.90;;;21.20;99.90;;;;;;5096161;28;20119;-60
2022/06/26 09:51:24;;;;;;;1604.85;845.17;;;20.90;99.90;;;;;;5113931;28;20040;-61
2022/06/26 09:53:50;;;;;;;1110.95;598.75;;;20.70;99.90;;;;;;5096357;28;20078;-61
2022/06/26 09:56:17;;;;;;;1999.90;999.90;;;20.60;99.90;;;;;;5114017;28;20043;-61
2022/06/26 09:58:43;;;;;;;1999.90;999.90;;;20.70;99.90;;;;;;5113809;28;20119;-60
2022/06/26 10:06:43;;;;;;;1999.90;999.90;;;21.40;99.90;;;;;;5112662;28;20154;-60
2022/06/26 10:09:09;;;;;;;1999.90;999.90;;;21.70;99.90;;;;;;5114162;28;20130;-60
2022/06/26 10:11:38;;;;;;;1999.90;999.90;;;22.00;99.90;;;;;;5111334;28;20641;-61
2022/06/26 10:14:14;;;;;;;1999.90;999.90;;;22.10;99.90;;;;;;5095822;28;20048;-61
2022/06/26 10:16:56;;;;;;;1999.90;999.90;;;22.30;99.90;;;;;;5115011;28;20040;-60
2022/06/26 10:19:30;;;;;;;1999.90;999.90;;;22.70;99.90;;;;;;5112247;28;20135;-60
2022/06/26 10:21:56;;;;;;;1999.90;999.90;;;22.90;99.90;;;;;;5113913;28;20488;-60
2022/06/26 10:24:22;;;;;;;1999.90;999.90;;;22.70;99.90;;;;;;5111492;28;20123;-60
2022/06/26 10:26:57;;;;;;;1999.90;999.90;;;22.70;99.90;;;;;;5112879;28;20192;-60
2022/06/26 10:29:39;;;;;;;1999.90;999.90;;;22.60;99.90;;;;;;5094059;28;20055;-60
2022/06/26 10:32:06;;;;;;;1999.90;999.90;;;22.40;99.90;;;;;;5109177;28;20047;-60
2022/06/26 10:34:33;;;;;;;1999.90;999.90;;;22.40;99.90;;;;;;5096613;28;20044;-60
2022/06/26 10:37:05;;;;;;;1999.90;999.90;;;22.70;99.90;;;;;;5114067;28;20155;-60
2022/06/26 10:39:41;;;;;;;1999.90;999.90;;;23.10;99.90;;;;;;5113088;28;20501;-60
2022/06/26 10:45:04;;;;;;;1999.90;999.90;;;23.30;99.90;;;;;;5114005;28;20052;-60
2022/06/26 10:47:42;;;;;;;1999.90;999.90;;;23.50;99.90;;;;;;5113453;28;20138;-60
2022/06/26 10:50:33;;;;;;;1999.90;999.90;;;23.10;99.90;;;;;;5094244;28;20070;-60
2022/06/26 10:53:14;;;;;;;1999.90;999.90;;;22.90;99.90;;;;;;5093077;28;20048;-60
2022/06/26 10:55:42;;;;;;;1999.90;999.90;;;22.70;99.90;;;;;;5103479;28;20455;-60
2022/06/26 10:58:09;;;;;;;1999.90;999.90;;;22.30;99.90;;;;;;5095302;28;20134;-60
2022/06/26 11:00:34;;;;;;;1999.90;999.90;;;22.40;99.90;;;;;;5091178;28;20044;-61
2022/06/26 11:03:11;;;;;;;1999.90;999.90;;;22.30;99.90;;;;;;5101280;28;20046;-60
2022/06/26 11:05:37;;;;;;;1999.90;999.90;;;22.30;99.90;;;;;;5113213;28;20043;-60
2022/06/26 11:08:03;;;;;;;1999.90;999.90;;;22.30;99.90;;;;;;5113134;28;20550;-60
2022/06/26 11:10:29;;;;;;;1999.90;999.90;;;22.50;99.90;;;;;;5113285;28;20036;-60
2022/06/26 11:12:55;;;;;;;1999.90;999.90;;;22.50;99.90;;;;;;5113426;28;20501;-60
2022/06/26 11:15:32;;;;;;;1999.90;999.90;;;22.60;99.90;;;;;;5112935;28;20044;-60
2022/06/26 11:18:03;;;;;;;1999.90;999.90;;;22.90;99.90;;;;;;5113186;28;20051;-60
2022/06/26 11:20:50;;;;;;;1999.90;999.90;;;23.10;99.90;;;;;;5113564;28;20043;-60
2022/06/26 11:23:20;;;;;;;1999.90;999.90;;;23.30;99.90;;;;;;5095759;28;20500;-60
2022/06/26 11:25:48;;;;;;;1999.90;999.90;;;23.50;99.90;;;;;;5113668;28;20108;-60
2022/06/26 11:28:16;;;;;;;1999.90;999.90;;;23.50;99.90;;;;;;5113148;28;20119;-60
2022/06/26 11:30:43;;;;;;;1999.90;999.90;;;23.50;99.90;;;;;;5077985;28;20054;-60
2022/06/26 11:33:10;;;;;;;1999.90;999.90;;;23.50;99.90;;;;;;5113470;28;20114;-60
2022/06/26 11:35:37;;;;;;;1999.90;999.90;;;23.80;99.90;;;;;;5112761;28;20044;-61
2022/06/26 11:38:10;;;;;;;1999.90;999.90;;;23.80;99.40;;;;;;5113178;28;20147;-61
2022/06/26 11:40:36;;;;;;;1999.90;999.90;;;23.60;99.90;;;;;;5113598;28;20044;-60
2022/06/26 11:43:02;;;;;;;1999.90;999.90;;;23.70;99.30;;;;;;5111640;28;20117;-60
2022/06/26 11:45:32;;;;;;;1999.90;999.90;;;23.80;99.90;;;;;;5113712;28;20194;-60
2022/06/26 11:48:00;;;;;;;1999.90;999.90;;;24.10;98.00;;;;;;5094751;28;20043;-61
2022/06/26 11:50:29;;;;;;;1999.90;999.90;;;24.20;98.00;;;;;;5112564;28;20139;-60
2022/06/26 11:52:57;;;;;;;1999.90;999.90;;;24.40;98.70;;;;;;5113139;28;20044;-60
2022/06/26 11:55:24;;;;;;;1999.90;999.90;;;24.70;98.40;;;;;;5112684;28;20481;-60
2022/06/26 11:57:51;;;;;;;1999.90;999.90;;;25.10;97.80;;;;;;5093768;28;20501;-60
2022/06/26 12:00:19;;;;;;;1999.90;999.90;;;25.40;97.60;;;;;;5110221;28;20043;-60
2022/06/26 12:02:47;;;;;;;1999.90;999.90;;;25.90;96.70;;;;;;5112995;28;20050;-60
2022/06/26 12:05:20;;;;;;;1999.90;999.90;;;25.90;97.50;;;;;;5112416;28;20043;-60
2022/06/26 12:07:48;;;;;;;1999.90;999.90;;;25.30;96.40;;;;;;5113225;28;20045;-60
2022/06/26 12:10:32;;;;;;;1999.90;999.90;;;25.10;96.60;;;;;;5112452;28;20058;-60
2022/06/26 12:12:59;;;;;;;1999.90;999.90;;;25.00;97.00;;;;;;5112838;28;20385;-61
2022/06/26 12:15:26;;;;;;;1999.90;999.90;;;24.80;97.70;;;;;;5094463;28;20478;-60
2022/06/26 12:17:55;;;;;;;1999.90;999.90;;;25.00;98.30;;;;;;5112578;28;20044;-60
2022/06/26 12:20:21;;;;;;;1999.90;999.90;;;25.50;97.70;;;;;;5112941;28;20138;-60
2022/06/26 12:22:50;;;;;;;1999.90;999.90;;;25.80;97.30;;;;;;5112397;28;20114;-61
2022/06/26 12:25:26;;;;;;;1999.90;999.90;;;26.00;97.10;;;;;;5112419;28;20401;-61